Time;durP1;ratioP1;P1;durP2;ratioP2;P2;SDS_P1;SDS_P2;PMS_P1;PMS_P2;Temp;Humidity;BMP_temperature;BMP_pressure;BME280_temperature;BME280_humidity;BME280_pressure;Samples;Min_cycle;Max_cycle;Signal;HPM_P1;HPM_P2
2022/03/29 00:00:24;;;;;;;;;;;;;;;;;;5072969;28;19921;-77
2022/03/29 00:02:50;;;;;;;;;;;;;;;;;;5073248;28;19917;-78
2022/03/29 00:05:15;;;;;;;;;;;;;;;;;;5072789;28;20371;-79
2022/03/29 00:07:44;;;;;;;;;;;;;;;;;;5078396;28;19921;-78
2022/03/29 00:10:10;;;;;;;;;;;;;;;;;;5082399;28;19947;-79
2022/03/29 00:12:35;;;;;;;;;;;;;;;;;;5086556;28;19917;-78
2022/03/29 00:15:02;;;;;;;;;;;;;;;;;;5078218;28;20391;-75
2022/03/29 00:17:27;;;;;;;;;;;;;;;;;;5074785;28;20308;-76
2022/03/29 00:19:53;;;;;;;;;;;;;;;;;;5075217;28;19924;-75
2022/03/29 00:22:18;;;;;;;;;;;;;;;;;;5075104;28;19980;-78
2022/03/29 00:24:44;;;;;;;;;;;;;;;;;;5074913;28;19921;-80
2022/03/29 00:27:09;;;;;;;;;;;;;;;;;;5054365;28;20318;-79
2022/03/29 00:29:35;;;;;;;;;;;;;;;;;;5074950;28;19917;-82
2022/03/29 00:32:01;;;;;;;;;;;;;;;;;;5072038;28;19966;-77
2022/03/29 00:34:26;;;;;;;;;;;;;;;;;;5074876;28;20435;-76
2022/03/29 00:36:52;;;;;;;;;;;;;;;;;;5074775;28;19920;-81
2022/03/29 00:39:17;;;;;;;;;;;;;;;;;;5074623;28;20393;-79
2022/03/29 00:41:43;;;;;;;;;;;;;;;;;;5056781;28;20369;-80
2022/03/29 00:44:08;;;;;;;;;;;;;;;;;;5056767;28;19924;-78
2022/03/29 00:46:34;;;;;;;;;;;;;;;;;;5074727;28;19917;-79
2022/03/29 00:48:59;;;;;;;;;;;;;;;;;;5074389;28;19922;-78
2022/03/29 00:51:25;;;;;;;;;;;;;;;;;;5056530;28;20292;-76
2022/03/29 00:53:51;;;;;;;;;;;;;;;;;;5074507;28;19960;-77
2022/03/29 00:56:22;;;;;;;;;;;;;;;;;;5074458;28;19925;-77
2022/03/29 00:58:48;;;;;;;;;;;;;;;;;;5074226;28;19929;-76
2022/03/29 01:01:13;;;;;;;;;;;;;;;;;;5073942;28;19927;-76
2022/03/29 01:03:42;;;;;;;;;;;;;;;;;;5071556;28;19916;-80
2022/03/29 01:06:08;;;;;;;;;;;;;;;;;;5074390;28;20412;-77
2022/03/29 01:08:35;;;;;;;;;;;;;;;;;;5074232;28;20023;-75
2022/03/29 01:11:00;;;;;;;;;;;;;;;;;;5071429;28;19916;-76
2022/03/29 01:13:26;;;;;;;;;;;;;;;;;;5069579;28;19943;-75
2022/03/29 01:15:51;;;;;;;;;;;;;;;;;;5070086;28;19928;-77
2022/03/29 01:18:20;;;;;;;;;;;;;;;;;;5055938;28;19921;-75
2022/03/29 01:20:52;;;;;;;;;;;;;;;;;;5071457;28;19921;-79
2022/03/29 01:23:18;;;;;;;;;;;;;;;;;;5073936;28;20057;-75
2022/03/29 01:25:43;;;;;;;;;;;;;;;;;;5058950;28;20420;-77
2022/03/29 01:28:10;;;;;;;;;;;;;;;;;;5064119;28;20020;-79
2022/03/29 01:30:35;;;;;;;;;;;;;;;;;;5074073;28;19920;-77
2022/03/29 01:33:01;;;;;;;;;;;;;;;;;;5060003;28;19916;-77
2022/03/29 01:35:28;;;;;;;;;;;;;;;;;;5063549;28;19917;-79
2022/03/29 01:37:54;;;;;;;;;;;;;;;;;;5072524;28;19920;-79
2022/03/29 01:40:20;;;;;;;;;;;;;;;;;;5070607;28;19942;-80
2022/03/29 01:42:50;;;;;;;;;;;;;;;;;;5069397;28;19921;-78
2022/03/29 01:45:16;;;;;;;;;;;;;;;;;;5066023;28;20430;-79
2022/03/29 01:47:42;;;;;;;;;;;;;;;;;;5059091;28;19916;-78
2022/03/29 01:50:08;;;;;;;;;;;;;;;;;;5059082;28;19932;-79
2022/03/29 01:52:38;;;;;;;;;;;;;;;;;;5062469;28;20403;-79
2022/03/29 01:55:04;;;;;;;;;;;;;;;;;;5054782;28;19967;-77
2022/03/29 01:57:30;;;;;;;;;;;;;;;;;;5063261;28;20327;-77
2022/03/29 02:02:39;;;;;;;;;;;;;;;;;;5070245;28;19974;-77
2022/03/29 02:05:05;;;;;;;;;;;;;;;;;;5054359;28;19920;-77
2022/03/29 02:07:31;;;;;;;;;;;;;;;;;;5068495;28;19916;-78
2022/03/29 02:09:56;;;;;;;;;;;;;;;;;;5074350;28;19920;-77
2022/03/29 02:12:22;;;;;;;;;;;;;;;;;;5074257;28;20352;-77
2022/03/29 02:14:47;;;;;;;;;;;;;;;;;;5074276;28;20372;-76
2022/03/29 02:17:13;;;;;;;;;;;;;;;;;;5056087;28;19947;-79
2022/03/29 02:19:38;;;;;;;;;;;;;;;;;;5074358;28;20371;-77
2022/03/29 02:22:04;;;;;;;;;;;;;;;;;;5074093;28;20360;-78
2022/03/29 02:24:29;;;;;;;;;;;;;;;;;;5073938;28;19917;-79
2022/03/29 02:26:54;;;;;;;;;;;;;;;;;;5065944;28;19917;-79
2022/03/29 02:29:20;;;;;;;;;;;;;;;;;;5053886;28;19917;-79
2022/03/29 02:31:45;;;;;;;;;;;;;;;;;;5057778;28;20311;-79
2022/03/29 02:34:11;;;;;;;;;;;;;;;;;;5056941;28;19924;-79
2022/03/29 02:36:36;;;;;;;;;;;;;;;;;;5066779;28;20373;-79
2022/03/29 02:39:02;;;;;;;;;;;;;;;;;;5063856;28;20365;-79
2022/03/29 02:41:27;;;;;;;;;;;;;;;;;;5056338;28;19927;-76
2022/03/29 02:43:53;;;;;;;;;;;;;;;;;;5053891;28;20440;-78
2022/03/29 02:46:19;;;;;;;;;;;;;;;;;;5053649;28;19921;-77
2022/03/29 02:48:45;;;;;;;;;;;;;;;;;;5036017;28;20015;-79
2022/03/29 02:51:10;;;;;;;;;;;;;;;;;;5053446;28;20015;-80
2022/03/29 02:53:35;;;;;;;;;;;;;;;;;;5053552;28;19917;-76
2022/03/29 02:56:01;;;;;;;;;;;;;;;;;;5053429;28;19924;-76
2022/03/29 02:58:26;;;;;;;;;;;;;;;;;;5053406;28;20365;-75
2022/03/29 03:00:52;;;;;;;;;;;;;;;;;;5059698;28;19920;-76
2022/03/29 03:03:18;;;;;;;;;;;;;;;;;;5073213;28;19936;-76
2022/03/29 03:05:44;;;;;;;;;;;;;;;;;;5054869;28;19927;-77
2022/03/29 03:08:10;;;;;;;;;;;;;;;;;;5073215;28;19917;-80
2022/03/29 03:10:35;;;;;;;;;;;;;;;;;;5055280;28;19924;-80
2022/03/29 03:13:00;;;;;;;;;;;;;;;;;;5073281;28;19928;-79
2022/03/29 03:15:26;;;;;;;;;;;;;;;;;;5073121;28;20007;-77
2022/03/29 03:17:52;;;;;;;;;;;;;;;;;;5073151;28;20374;-78
2022/03/29 03:20:18;;;;;;;;;;;;;;;;;;5073076;28;19920;-77
2022/03/29 03:22:44;;;;;;;;;;;;;;;;;;5073133;28;19920;-77
2022/03/29 03:25:10;;;;;;;;;;;;;;;;;;5073016;28;19916;-76
2022/03/29 03:27:35;;;;;;;;;;;;;;;;;;5059176;28;19917;-77
2022/03/29 03:30:01;;;;;;;;;;;;;;;;;;5055364;28;19929;-77
2022/03/29 03:32:26;;;;;;;;;;;;;;;;;;5058483;28;19931;-78
2022/03/29 03:34:52;;;;;;;;;;;;;;;;;;5059949;28;19925;-76
2022/03/29 03:37:17;;;;;;;;;;;;;;;;;;5059352;28;19929;-76
2022/03/29 03:39:43;;;;;;;;;;;;;;;;;;5057696;28;19920;-77
2022/03/29 03:42:12;;;;;;;;;;;;;;;;;;5059682;28;20369;-78
2022/03/29 03:44:38;;;;;;;;;;;;;;;;;;5044737;28;19931;-77
2022/03/29 03:47:04;;;;;;;;;;;;;;;;;;5065764;28;19978;-79
2022/03/29 03:49:30;;;;;;;;;;;;;;;;;;5062074;28;19920;-78
2022/03/29 03:51:55;;;;;;;;;;;;;;;;;;5075140;28;19927;-77
2022/03/29 03:54:21;;;;;;;;;;;;;;;;;;5083140;28;19925;-76
2022/03/29 03:56:46;;;;;;;;;;;;;;;;;;5080698;28;20418;-78
2022/03/29 03:59:12;;;;;;;;;;;;;;;;;;5076785;28;19916;-74
2022/03/29 04:01:37;;;;;;;;;;;;;;;;;;5076769;28;19924;-74
2022/03/29 04:04:03;;;;;;;;;;;;;;;;;;5076569;28;19917;-79
2022/03/29 04:06:28;;;;;;;;;;;;;;;;;;5058340;28;20376;-77
2022/03/29 04:08:54;;;;;;;;;;;;;;;;;;5076741;28;19927;-76
2022/03/29 04:11:19;;;;;;;;;;;;;;;;;;5076563;28;20395;-76
2022/03/29 04:13:45;;;;;;;;;;;;;;;;;;5076586;28;19926;-79
2022/03/29 04:16:10;;;;;;;;;;;;;;;;;;5076475;28;20335;-77
2022/03/29 04:18:36;;;;;;;;;;;;;;;;;;5076489;28;19923;-78
2022/03/29 04:21:01;;;;;;;;;;;;;;;;;;5076491;28;20003;-78
2022/03/29 04:23:27;;;;;;;;;;;;;;;;;;5076440;28;19916;-76
2022/03/29 04:25:53;;;;;;;;;;;;;;;;;;5074348;28;19926;-77
2022/03/29 04:28:19;;;;;;;;;;;;;;;;;;5037815;28;20304;-75
2022/03/29 04:30:44;;;;;;;;;;;;;;;;;;5055872;28;19970;-76
2022/03/29 04:33:10;;;;;;;;;;;;;;;;;;5055818;28;19943;-77
2022/03/29 04:35:35;;;;;;;;;;;;;;;;;;5055808;28;20315;-77
2022/03/29 04:38:01;;;;;;;;;;;;;;;;;;5054661;28;20380;-77
2022/03/29 04:40:26;;;;;;;;;;;;;;;;;;5056356;28;19920;-76
2022/03/29 04:42:52;;;;;;;;;;;;;;;;;;5055986;28;20376;-77
2022/03/29 04:45:18;;;;;;;;;;;;;;;;;;5056062;28;19920;-77
2022/03/29 04:47:45;;;;;;;;;;;;;;;;;;5055936;28;20383;-77
2022/03/29 04:50:11;;;;;;;;;;;;;;;;;;5055805;28;19920;-77
2022/03/29 04:52:39;;;;;;;;;;;;;;;;;;5055757;28;19917;-75
2022/03/29 04:55:05;;;;;;;;;;;;;;;;;;5055828;28;19940;-76
2022/03/29 04:57:30;;;;;;;;;;;;;;;;;;5055666;28;20360;-75
2022/03/29 04:59:56;;;;;;;;;;;;;;;;;;5055689;28;19962;-75
2022/03/29 05:02:23;;;;;;;;;;;;;;;;;;5054740;28;20021;-76
2022/03/29 05:04:49;;;;;;;;;;;;;;;;;;5055643;28;19924;-78
2022/03/29 05:07:15;;;;;;;;;;;;;;;;;;5055504;28;19916;-79
2022/03/29 05:09:41;;;;;;;;;;;;;;;;;;5055613;28;20015;-79
2022/03/29 05:12:06;;;;;;;;;;;;;;;;;;5055321;28;19923;-78
2022/03/29 05:14:34;;;;;;;;;;;;;;;;;;5037547;28;19917;-79
2022/03/29 05:17:00;;;;;;;;;;;;;;;;;;5055628;28;19913;-75
2022/03/29 05:19:25;;;;;;;;;;;;;;;;;;5055243;28;19923;-77
2022/03/29 05:21:51;;;;;;;;;;;;;;;;;;5055249;28;20016;-80
2022/03/29 05:24:16;;;;;;;;;;;;;;;;;;5055255;28;20424;-76
2022/03/29 05:26:42;;;;;;;;;;;;;;;;;;5054837;28;19916;-80
2022/03/29 05:29:09;;;;;;;;;;;;;;;;;;5055182;28;20291;-76
2022/03/29 05:31:34;;;;;;;;;;;;;;;;;;5055052;28;19916;-76
2022/03/29 05:33:59;;;;;;;;;;;;;;;;;;5055164;28;19925;-79
2022/03/29 05:36:25;;;;;;;;;;;;;;;;;;5055187;28;19920;-80
2022/03/29 05:38:52;;;;;;;;;;;;;;;;;;5054882;28;20425;-79
2022/03/29 05:41:20;;;;;;;;;;;;;;;;;;5055142;28;20129;-78
2022/03/29 05:43:47;;;;;;;;;;;;;;;;;;5054926;28;20292;-78
2022/03/29 05:48:57;;;;;;;;;;;;;;;;;;5055228;28;19924;-76
2022/03/29 05:51:24;;;;;;;;;;;;;;;;;;5054907;28;19921;-79
2022/03/29 05:53:50;;;;;;;;;;;;;;;;;;5054743;28;20027;-78
2022/03/29 05:56:15;;;;;;;;;;;;;;;;;;5054755;28;19977;-78
2022/03/29 05:58:41;;;;;;;;;;;;;;;;;;5054666;28;20137;-75
2022/03/29 06:01:06;;;;;;;;;;;;;;;;;;5054316;28;19925;-80
2022/03/29 06:03:32;;;;;;;;;;;;;;;;;;5058864;28;19974;-78
2022/03/29 06:05:57;;;;;;;;;;;;;;;;;;5070215;28;20372;-79
2022/03/29 06:08:23;;;;;;;;;;;;;;;;;;5074417;28;20003;-78
2022/03/29 06:10:48;;;;;;;;;;;;;;;;;;5074251;28;19917;-77
2022/03/29 06:13:14;;;;;;;;;;;;;;;;;;5073256;28;19917;-77
2022/03/29 06:15:39;;;;;;;;;;;;;;;;;;5074259;28;20376;-76
2022/03/29 06:18:05;;;;;;;;;;;;;;;;;;5074107;28;19916;-76
2022/03/29 06:20:31;;;;;;;;;;;;;;;;;;5074301;28;19917;-75
2022/03/29 06:22:56;;;;;;;;;;;;;;;;;;5074158;28;19962;-79
2022/03/29 06:25:22;;;;;;;;;;;;;;;;;;5074104;28;20475;-79
2022/03/29 06:27:49;;;;;;;;;;;;;;;;;;5073782;28;19928;-75
2022/03/29 06:30:15;;;;;;;;;;;;;;;;;;5073875;28;19958;-76
2022/03/29 06:32:47;;;;;;;;;;;;;;;;;;5055969;28;19960;-75
2022/03/29 06:35:13;;;;;;;;;;;;;;;;;;5073935;28;19956;-77
2022/03/29 06:37:38;;;;;;;;;;;;;;;;;;5073838;28;19966;-78
2022/03/29 06:40:04;;;;;;;;;;;;;;;;;;5073634;28;20392;-78
2022/03/29 06:42:29;;;;;;;;;;;;;;;;;;5055846;28;19916;-78
2022/03/29 06:44:55;;;;;;;;;;;;;;;;;;5073995;28;19916;-77
2022/03/29 06:47:20;;;;;;;;;;;;;;;;;;5073660;28;19917;-77
2022/03/29 06:49:46;;;;;;;;;;;;;;;;;;5073766;28;19958;-77
2022/03/29 06:52:11;;;;;;;;;;;;;;;;;;5073636;28;20369;-78
2022/03/29 06:54:37;;;;;;;;;;;;;;;;;;5073481;28;20368;-75
2022/03/29 06:57:04;;;;;;;;;;;;;;;;;;5073340;28;19924;-79
2022/03/29 06:59:29;;;;;;;;;;;;;;;;;;5073499;28;20011;-77
2022/03/29 07:01:54;;;;;;;;;;;;;;;;;;5073295;28;20005;-78
2022/03/29 07:04:20;;;;;;;;;;;;;;;;;;5073381;28;19921;-76
2022/03/29 07:06:45;;;;;;;;;;;;;;;;;;5073541;28;19931;-77
2022/03/29 07:11:54;;;;;;;;;;;;;;;;;;5073157;28;19923;-78
2022/03/29 07:14:20;;;;;;;;;;;;;;;;;;5073262;28;20314;-75
2022/03/29 07:16:46;;;;;;;;;;;;;;;;;;5073280;28;19990;-78
2022/03/29 07:19:11;;;;;;;;;;;;;;;;;;5073230;28;19964;-79
2022/03/29 07:21:39;;;;;;;;;;;;;;;;;;5073148;28;20352;-76
2022/03/29 07:24:08;;;;;;;;;;;;;;;;;;5054782;28;19939;-78
2022/03/29 07:26:34;;;;;;;;;;;;;;;;;;5072865;28;20011;-76
2022/03/29 07:29:00;;;;;;;;;;;;;;;;;;5071169;28;19920;-79
2022/03/29 07:31:25;;;;;;;;;;;;;;;;;;5070586;28;19921;-79
2022/03/29 07:33:51;;;;;;;;;;;;;;;;;;5072244;28;19916;-78
2022/03/29 07:36:16;;;;;;;;;;;;;;;;;;5073098;28;19951;-79
2022/03/29 07:38:41;;;;;;;;;;;;;;;;;;5073315;28;19917;-80
2022/03/29 07:41:07;;;;;;;;;;;;;;;;;;5072877;28;19921;-80
2022/03/29 07:43:32;;;;;;;;;;;;;;;;;;5072961;28;19924;-77
2022/03/29 07:45:58;;;;;;;;;;;;;;;;;;5072948;28;19924;-77
2022/03/29 07:48:24;;;;;;;;;;;;;;;;;;5073241;28;19921;-76
2022/03/29 07:50:49;;;;;;;;;;;;;;;;;;5072725;28;20360;-77
2022/03/29 07:53:15;;;;;;;;;;;;;;;;;;5073006;28;19983;-76
2022/03/29 07:55:40;;;;;;;;;;;;;;;;;;5072872;28;20368;-77
2022/03/29 07:58:06;;;;;;;;;;;;;;;;;;5073159;28;19916;-76
2022/03/29 08:00:32;;;;;;;;;;;;;;;;;;5073428;28;19927;-74
2022/03/29 08:03:07;;;;;;;;;;;;;;;;;;5073372;28;20097;-77
2022/03/29 08:05:34;;;;;;;;;;;;;;;;;;5074978;28;19917;-77
2022/03/29 08:08:00;;;;;;;;;;;;;;;;;;5074319;28;19931;-78
2022/03/29 08:10:27;;;;;;;;;;;;;;;;;;5072963;28;19916;-77
2022/03/29 08:12:53;;;;;;;;;;;;;;;;;;5071994;28;20019;-79
2022/03/29 08:15:19;;;;;;;;;;;;;;;;;;5071576;28;20020;-76
2022/03/29 08:17:44;;;;;;;;;;;;;;;;;;5072131;28;20284;-77
2022/03/29 08:20:10;;;;;;;;;;;;;;;;;;5073382;28;20011;-77
2022/03/29 08:22:35;;;;;;;;;;;;;;;;;;5070826;28;19955;-77
2022/03/29 08:25:01;;;;;;;;;;;;;;;;;;5052613;28;19927;-80
2022/03/29 08:27:27;;;;;;;;;;;;;;;;;;5069755;28;19923;-75
2022/03/29 08:29:52;;;;;;;;;;;;;;;;;;5070977;28;19933;-79
2022/03/29 08:32:18;;;;;;;;;;;;;;;;;;5070271;28;19929;-78
2022/03/29 08:34:43;;;;;;;;;;;;;;;;;;5071229;28;19920;-78
2022/03/29 08:37:09;;;;;;;;;;;;;;;;;;5072879;28;19955;-77
2022/03/29 08:39:35;;;;;;;;;;;;;;;;;;5075073;28;19969;-78
2022/03/29 08:42:03;;;;;;;;;;;;;;;;;;5073612;28;19955;-76
2022/03/29 08:44:30;;;;;;;;;;;;;;;;;;5072704;28;19928;-76
2022/03/29 08:46:55;;;;;;;;;;;;;;;;;;5074616;28;19989;-76
2022/03/29 08:49:21;;;;;;;;;;;;;;;;;;5072071;28;20634;-76
2022/03/29 08:51:47;;;;;;;;;;;;;;;;;;5074529;28;19920;-76
2022/03/29 08:54:12;;;;;;;;;;;;;;;;;;5074503;28;19924;-78
2022/03/29 08:56:39;;;;;;;;;;;;;;;;;;5073974;28;19948;-76
2022/03/29 08:59:05;;;;;;;;;;;;;;;;;;5075054;28;20361;-79
2022/03/29 09:01:30;;;;;;;;;;;;;;;;;;5075462;28;19920;-79
2022/03/29 09:04:13;;;;;;;;;;;;;;;;;;5073046;28;19928;-79
2022/03/29 09:07:04;;;;;;;;;;;;;;;;;;5074877;28;19930;-78
2022/03/29 09:09:31;;;;;;;;;;;;;;;;;;5070189;28;19926;-77
2022/03/29 09:11:57;;;;;;;;;;;;;;;;;;5074488;28;19924;-79
2022/03/29 09:14:24;;;;;;;;;;;;;;;;;;5074057;28;20437;-79
2022/03/29 09:16:51;;;;;;;;;;;;;;;;;;5075108;28;19928;-80
2022/03/29 09:19:18;;;;;;;;;;;;;;;;;;5073720;28;19924;-78
2022/03/29 09:21:44;;;;;;;;;;;;;;;;;;5073785;28;19928;-79
2022/03/29 09:24:14;;;;;;;;;;;;;;;;;;5074665;28;19970;-78
2022/03/29 09:26:41;;;;;;;;;;;;;;;;;;5068661;28;19920;-79
2022/03/29 09:29:13;;;;;;;;;;;;;;;;;;5070312;28;20319;-78
2022/03/29 09:31:39;;;;;;;;;;;;;;;;;;5071950;28;20304;-78
2022/03/29 09:34:12;;;;;;;;;;;;;;;;;;5073048;28;19935;-82
2022/03/29 09:36:42;;;;;;;;;;;;;;;;;;5073124;28;19962;-78
2022/03/29 09:39:07;;;;;;;;;;;;;;;;;;5072481;28;20335;-78
2022/03/29 09:41:35;;;;;;;;;;;;;;;;;;5069125;28;19916;-80
2022/03/29 09:44:11;;;;;;;;;;;;;;;;;;5073335;28;19924;-79
2022/03/29 09:46:59;;;;;;;;;;;;;;;;;;5071569;28;19922;-79
2022/03/29 09:49:25;;;;;;;;;;;;;;;;;;5072226;28;19920;-79
2022/03/29 09:52:10;;;;;;;;;;;;;;;;;;5068740;28;19924;-80
2022/03/29 09:54:36;;;;;;;;;;;;;;;;;;5068589;28;19921;-78
2022/03/29 09:57:01;;;;;;;;;;;;;;;;;;5084092;28;19923;-78
2022/03/29 09:59:27;;;;;;;;;;;;;;;;;;5077175;28;19920;-79
2022/03/29 10:01:55;;;;;;;;;;;;;;;;;;5075607;28;19987;-77
2022/03/29 10:04:23;;;;;;;;;;;;;;;;;;5075339;28;20007;-78
2022/03/29 10:06:49;;;;;;;;;;;;;;;;;;5072030;28;19960;-77
2022/03/29 10:09:26;;;;;;;;;;;;;;;;;;5067310;28;19927;-78
2022/03/29 10:11:52;;;;;;;;;;;;;;;;;;5076269;28;20010;-79
2022/03/29 10:14:21;;;;;;;;;;;;;;;;;;5074210;28;19972;-79
2022/03/29 10:16:47;;;;;;;;;;;;;;;;;;5073872;28;20280;-77
2022/03/29 10:19:13;;;;;;;;;;;;;;;;;;5074049;28;19921;-77
2022/03/29 10:21:40;;;;;;;;;;;;;;;;;;5074774;28;19931;-80
2022/03/29 10:24:07;;;;;;;;;;;;;;;;;;5083845;28;19921;-76
2022/03/29 10:26:33;;;;;;;;;;;;;;;;;;5071850;28;19917;-77
2022/03/29 10:28:58;;;;;;;;;;;;;;;;;;5067925;28;19954;-78
2022/03/29 10:31:36;;;;;;;;;;;;;;;;;;5067172;28;20003;-78
2022/03/29 10:34:12;;;;;;;;;;;;;;;;;;5064175;28;19924;-77
2022/03/29 10:37:09;;;;;;;;;;;;;;;;;;5061863;28;19916;-78
2022/03/29 10:39:42;;;;;;;;;;;;;;;;;;5059976;28;19927;-78
2022/03/29 10:42:26;;;;;;;;;;;;;;;;;;5071637;28;20446;-78
2022/03/29 10:45:06;;;;;;;;;;;;;;;;;;5062879;28;19916;-81
2022/03/29 10:47:32;;;;;;;;;;;;;;;;;;5050774;28;19927;-80
2022/03/29 10:50:04;;;;;;;;;;;;;;;;;;5061688;28;20080;-77
2022/03/29 10:52:36;;;;;;;;;;;;;;;;;;5059501;28;19940;-79
2022/03/29 10:55:20;;;;;;;;;;;;;;;;;;5047645;28;19924;-78
2022/03/29 10:58:02;;;;;;;;;;;;;;;;;;5073047;28;19939;-79
2022/03/29 11:00:31;;;;;;;;;;;;;;;;;;5062659;28;20274;-79
2022/03/29 11:03:15;;;;;;;;;;;;;;;;;;5061197;28;20283;-77
2022/03/29 11:05:59;;;;;;;;;;;;;;;;;;5072385;28;19974;-80
2022/03/29 11:08:25;;;;;;;;;;;;;;;;;;5069587;28;19920;-80
2022/03/29 11:10:50;;;;;;;;;;;;;;;;;;5071872;28;19924;-80
2022/03/29 11:13:48;;;;;;;;;;;;;;;;;;5069269;28;19935;-80
2022/03/29 11:16:33;;;;;;;;;;;;;;;;;;5035473;28;20345;-79
2022/03/29 11:18:58;;;;;;;;;;;;;;;;;;5070559;28;19920;-79
2022/03/29 11:21:32;;;;;;;;;;;;;;;;;;5070907;28;20377;-79
2022/03/29 11:23:58;;;;;;;;;;;;;;;;;;5072184;28;19920;-79
2022/03/29 11:26:24;;;;;;;;;;;;;;;;;;5071854;28;19928;-79
2022/03/29 11:28:50;;;;;;;;;;;;;;;;;;5072770;28;19924;-79
2022/03/29 11:31:17;;;;;;;;;;;;;;;;;;5072630;28;19968;-79
2022/03/29 11:33:45;;;;;;;;;;;;;;;;;;5078885;28;19961;-80
2022/03/29 11:36:11;;;;;;;;;;;;;;;;;;5079241;28;19966;-78
2022/03/29 11:38:36;;;;;;;;;;;;;;;;;;5063083;28;19935;-79
2022/03/29 11:41:03;;;;;;;;;;;;;;;;;;5073398;28;19916;-79
2022/03/29 11:43:28;;;;;;;;;;;;;;;;;;5071456;28;19931;-79
2022/03/29 11:45:54;;;;;;;;;;;;;;;;;;5073928;28;20320;-79
2022/03/29 11:48:21;;;;;;;;;;;;;;;;;;5071861;28;20009;-79
2022/03/29 11:50:57;;;;;;;;;;;;;;;;;;5078313;28;19924;-80
2022/03/29 11:53:32;;;;;;;;;;;;;;;;;;5087905;28;19963;-80
2022/03/29 11:56:01;;;;;;;;;;;;;;;;;;5081018;28;19928;-78
2022/03/29 11:58:30;;;;;;;;;;;;;;;;;;5076549;28;19924;-79
2022/03/29 12:01:16;;;;;;;;;;;;;;;;;;5082250;28;19920;-79
2022/03/29 12:03:43;;;;;;;;;;;;;;;;;;5082919;28;19942;-80
2022/03/29 12:06:11;;;;;;;;;;;;;;;;;;5068521;28;19924;-77
2022/03/29 12:08:50;;;;;;;;;;;;;;;;;;5060686;28;19928;-77
2022/03/29 12:11:16;;;;;;;;;;;;;;;;;;5075477;28;20364;-79
2022/03/29 12:13:46;;;;;;;;;;;;;;;;;;5074305;28;19947;-78
2022/03/29 12:16:19;;;;;;;;;;;;;;;;;;5082870;28;19917;-77
2022/03/29 12:18:45;;;;;;;;;;;;;;;;;;5080679;28;19935;-79
2022/03/29 12:21:11;;;;;;;;;;;;;;;;;;5065961;28;20302;-81
2022/03/29 12:23:37;;;;;;;;;;;;;;;;;;5072758;28;20588;-80
2022/03/29 12:26:03;;;;;;;;;;;;;;;;;;5069366;28;19924;-79
2022/03/29 12:28:29;;;;;;;;;;;;;;;;;;5068404;28;19949;-78
2022/03/29 12:30:55;;;;;;;;;;;;;;;;;;5070113;28;19936;-81
2022/03/29 12:33:23;;;;;;;;;;;;;;;;;;5060094;28;20308;-79
2022/03/29 12:36:01;;;;;;;;;;;;;;;;;;5068451;28;20412;-79
2022/03/29 12:38:26;;;;;;;;;;;;;;;;;;5066725;28;20789;-80
2022/03/29 12:40:57;;;;;;;;;;;;;;;;;;5064906;28;20004;-79
2022/03/29 12:43:27;;;;;;;;;;;;;;;;;;5062036;28;20403;-80
2022/03/29 12:45:52;;;;;;;;;;;;;;;;;;5066601;28;19924;-78
2022/03/29 12:48:21;;;;;;;;;;;;;;;;;;5070897;28;19942;-78
2022/03/29 12:50:47;;;;;;;;;;;;;;;;;;5064696;28;19928;-79
2022/03/29 12:53:15;;;;;;;;;;;;;;;;;;5060084;28;20373;-77
2022/03/29 12:55:52;;;;;;;;;;;;;;;;;;5066017;28;19920;-78
2022/03/29 12:58:28;;;;;;;;;;;;;;;;;;5073565;28;19924;-77
2022/03/29 13:00:53;;;;;;;;;;;;;;;;;;5072084;28;19924;-78
2022/03/29 13:03:19;;;;;;;;;;;;;;;;;;5063250;28;19928;-78
2022/03/29 13:05:47;;;;;;;;;;;;;;;;;;5064832;28;20420;-79
2022/03/29 13:08:18;;;;;;;;;;;;;;;;;;5059271;28;19936;-83
2022/03/29 13:10:44;;;;;;;;;;;;;;;;;;5051606;28;20081;-79
2022/03/29 13:13:12;;;;;;;;;;;;;;;;;;5070016;28;20015;-79
2022/03/29 13:15:56;;;;;;;;;;;;;;;;;;5072986;28;19916;-79
2022/03/29 13:18:32;;;;;;;;;;;;;;;;;;5075687;28;20372;-79
2022/03/29 13:21:05;;;;;;;;;;;;;;;;;;5054581;28;20303;-81
2022/03/29 13:23:31;;;;;;;;;;;;;;;;;;5069396;28;19925;-77
2022/03/29 13:25:57;;;;;;;;;;;;;;;;;;5065033;28;20377;-77
2022/03/29 13:28:23;;;;;;;;;;;;;;;;;;5065031;28;19921;-79
2022/03/29 13:30:49;;;;;;;;;;;;;;;;;;5073267;28;20019;-80
2022/03/29 13:33:14;;;;;;;;;;;;;;;;;;5064835;28;20783;-81
2022/03/29 13:35:46;;;;;;;;;;;;;;;;;;5058719;28;20026;-81
2022/03/29 13:38:12;;;;;;;;;;;;;;;;;;5057641;28;19920;-81
2022/03/29 13:40:41;;;;;;;;;;;;;;;;;;5043960;28;19920;-78
2022/03/29 13:43:06;;;;;;;;;;;;;;;;;;5061669;28;19968;-80
2022/03/29 13:45:32;;;;;;;;;;;;;;;;;;5069888;28;19967;-79
2022/03/29 13:47:58;;;;;;;;;;;;;;;;;;5063419;28;20110;-79
2022/03/29 13:50:23;;;;;;;;;;;;;;;;;;5059157;28;19920;-80
2022/03/29 13:52:49;;;;;;;;;;;;;;;;;;5068519;28;19924;-78
2022/03/29 13:55:15;;;;;;;;;;;;;;;;;;5061647;28;19925;-82
2022/03/29 13:57:40;;;;;;;;;;;;;;;;;;5058191;28;19940;-79
2022/03/29 14:00:06;;;;;;;;;;;;;;;;;;5056255;28;20006;-79
2022/03/29 14:02:31;;;;;;;;;;;;;;;;;;5055418;28;19921;-78
2022/03/29 14:04:57;;;;;;;;;;;;;;;;;;5057277;28;20013;-86
2022/03/29 14:07:22;;;;;;;;;;;;;;;;;;5056140;28;19959;-77
2022/03/29 14:09:47;;;;;;;;;;;;;;;;;;5057527;28;20367;-80
2022/03/29 14:12:13;;;;;;;;;;;;;;;;;;5059134;28;20051;-80
2022/03/29 14:14:38;;;;;;;;;;;;;;;;;;5043488;28;19935;-82
2022/03/29 14:17:04;;;;;;;;;;;;;;;;;;5069862;28;19923;-80
2022/03/29 14:19:29;;;;;;;;;;;;;;;;;;5069362;28;19978;-79
2022/03/29 14:21:56;;;;;;;;;;;;;;;;;;5066086;28;20015;-80
2022/03/29 14:24:22;;;;;;;;;;;;;;;;;;5058872;28;20403;-78
2022/03/29 14:26:47;;;;;;;;;;;;;;;;;;5060691;28;19932;-78
2022/03/29 14:29:13;;;;;;;;;;;;;;;;;;5074106;28;20304;-78
2022/03/29 14:31:38;;;;;;;;;;;;;;;;;;5069996;28;19932;-80
2022/03/29 14:34:04;;;;;;;;;;;;;;;;;;5059039;28;19925;-79
2022/03/29 14:36:29;;;;;;;;;;;;;;;;;;5045210;28;19929;-78
2022/03/29 14:38:56;;;;;;;;;;;;;;;;;;5061641;28;19924;-77
2022/03/29 14:41:21;;;;;;;;;;;;;;;;;;5064583;28;19920;-77
2022/03/29 14:43:47;;;;;;;;;;;;;;;;;;5057951;28;19924;-78
2022/03/29 14:46:12;;;;;;;;;;;;;;;;;;5058108;28;19970;-81
2022/03/29 14:48:38;;;;;;;;;;;;;;;;;;5061579;28;19935;-82
2022/03/29 14:51:03;;;;;;;;;;;;;;;;;;5040371;28;19924;-78
2022/03/29 14:53:30;;;;;;;;;;;;;;;;;;5062264;28;19928;-77
2022/03/29 14:55:56;;;;;;;;;;;;;;;;;;5041586;28;19920;-79
2022/03/29 14:58:22;;;;;;;;;;;;;;;;;;5061938;28;20281;-78
2022/03/29 15:00:48;;;;;;;;;;;;;;;;;;5059124;28;19967;-76
2022/03/29 15:03:14;;;;;;;;;;;;;;;;;;5064836;28;20364;-78
2022/03/29 15:05:39;;;;;;;;;;;;;;;;;;5071198;28;20344;-78
2022/03/29 15:08:05;;;;;;;;;;;;;;;;;;5070318;28;19921;-77
2022/03/29 15:10:30;;;;;;;;;;;;;;;;;;5063985;28;19975;-79
2022/03/29 15:12:56;;;;;;;;;;;;;;;;;;5069204;28;19920;-76
2022/03/29 15:15:24;;;;;;;;;;;;;;;;;;5070827;28;19998;-80
2022/03/29 15:17:50;;;;;;;;;;;;;;;;;;5075854;28;20369;-79
2022/03/29 15:20:16;;;;;;;;;;;;;;;;;;5087547;28;19935;-78
2022/03/29 15:22:42;;;;;;;;;;;;;;;;;;5081563;28;19915;-77
2022/03/29 15:25:08;;;;;;;;;;;;;;;;;;5080719;28;19920;-78
2022/03/29 15:27:35;;;;;;;;;;;;;;;;;;5089157;28;19920;-77
2022/03/29 15:30:01;;;;;;;;;;;;;;;;;;5076106;28;20018;-78
2022/03/29 15:32:26;;;;;;;;;;;;;;;;;;5084119;28;20007;-79
2022/03/29 15:34:52;;;;;;;;;;;;;;;;;;5088949;28;19923;-78
2022/03/29 15:37:17;;;;;;;;;;;;;;;;;;5079004;28;20391;-79
2022/03/29 15:39:45;;;;;;;;;;;;;;;;;;5089379;28;19916;-79
2022/03/29 15:42:11;;;;;;;;;;;;;;;;;;5077869;28;19920;-80
2022/03/29 15:44:41;;;;;;;;;;;;;;;;;;5085861;28;19912;-78
2022/03/29 15:47:07;;;;;;;;;;;;;;;;;;5088341;28;19938;-78
2022/03/29 15:49:32;;;;;;;;;;;;;;;;;;5083633;28;19916;-78
2022/03/29 15:51:59;;;;;;;;;;;;;;;;;;5096023;28;20019;-79
2022/03/29 15:54:24;;;;;;;;;;;;;;;;;;5086676;28;19959;-78
2022/03/29 15:56:51;;;;;;;;;;;;;;;;;;5089931;28;19927;-78
2022/03/29 15:59:16;;;;;;;;;;;;;;;;;;5093867;28;19920;-79
2022/03/29 16:01:42;;;;;;;;;;;;;;;;;;5083078;28;19944;-79
2022/03/29 16:04:09;;;;;;;;;;;;;;;;;;5095490;28;19916;-79
2022/03/29 16:06:35;;;;;;;;;;;;;;;;;;5087736;28;19923;-78
2022/03/29 16:09:01;;;;;;;;;;;;;;;;;;5088164;28;19920;-79
2022/03/29 16:11:26;;;;;;;;;;;;;;;;;;5079630;28;19955;-79
2022/03/29 16:13:52;;;;;;;;;;;;;;;;;;5096391;28;20012;-79
2022/03/29 16:16:17;;;;;;;;;;;;;;;;;;5086249;28;19920;-80
2022/03/29 16:18:43;;;;;;;;;;;;;;;;;;5095896;28;19970;-79
2022/03/29 16:21:09;;;;;;;;;;;;;;;;;;5104533;28;20380;-76
2022/03/29 16:23:35;;;;;;;;;;;;;;;;;;5099603;28;19917;-78
2022/03/29 16:26:01;;;;;;;;;;;;;;;;;;5092623;28;19917;-79
2022/03/29 16:28:27;;;;;;;;;;;;;;;;;;5092997;28;19927;-79
2022/03/29 16:30:52;;;;;;;;;;;;;;;;;;5090034;28;19920;-79
2022/03/29 16:33:18;;;;;;;;;;;;;;;;;;5085768;28;19920;-78
2022/03/29 16:35:44;;;;;;;;;;;;;;;;;;5079241;28;19916;-79
2022/03/29 16:38:09;;;;;;;;;;;;;;;;;;5080031;28;20288;-78
2022/03/29 16:40:36;;;;;;;;;;;;;;;;;;5079702;28;19923;-79
2022/03/29 16:43:04;;;;;;;;;;;;;;;;;;5080648;28;20354;-78
2022/03/29 16:45:30;;;;;;;;;;;;;;;;;;5077755;28;19924;-78
2022/03/29 16:47:56;;;;;;;;;;;;;;;;;;5060025;28;19917;-79
2022/03/29 16:50:23;;;;;;;;;;;;;;;;;;5065576;28;19982;-79
2022/03/29 16:52:49;;;;;;;;;;;;;;;;;;5079780;28;19989;-80